createdAt,value
2019-01-09T00:01:38.826Z,98718.35
2019-01-09T00:03:40.783Z,98729.50
2019-01-09T00:05:43.710Z,98728.87
2019-01-09T00:07:44.749Z,98720.87
2019-01-09T00:09:46.654Z,98724.74
2019-01-09T00:11:47.353Z,98728.91
2019-01-09T00:13:48.388Z,98723.95
2019-01-09T00:15:49.336Z,98730.38
2019-01-09T00:17:50.303Z,98732.33
2019-01-09T00:19:51.268Z,98719.54
2019-01-09T00:21:52.281Z,98729.48
2019-01-09T00:23:53.227Z,98727.63
2019-01-09T00:25:53.991Z,98721.22
2019-01-09T00:27:55.948Z,98728.33
2019-01-09T00:30:23.447Z,98723.06
2019-01-09T00:32:24.370Z,98727.20
2019-01-09T00:34:25.175Z,98730.98
2019-01-09T00:36:25.936Z,98729.81
2019-01-09T00:38:27.061Z,98743.77
2019-01-09T00:40:27.820Z,98745.34
2019-01-09T00:42:32.841Z,98744.05
2019-01-09T00:44:33.847Z,98734.28
2019-01-09T00:46:34.813Z,98737.69
2019-01-09T00:48:35.602Z,98733.22
2019-01-09T00:50:36.488Z,98729.03
2019-01-09T00:52:37.378Z,98742.28
2019-01-09T00:54:40.353Z,98732.45
2019-01-09T00:56:41.480Z,98737.62
2019-01-09T00:58:42.562Z,98740.45
2019-01-09T01:00:44.228Z,98739.78
2019-01-09T01:08:54.979Z,98732.96
2019-01-09T01:10:59.859Z,98741.56
2019-01-09T01:13:21.371Z,98724.94
2019-01-09T01:15:51.792Z,98718.48
2019-01-09T01:18:12.880Z,98727.58
2019-01-09T01:20:22.899Z,98720.63
2019-01-09T01:22:56.246Z,98728.62
2019-01-09T01:25:10.377Z,98724.53
2019-01-09T01:27:14.945Z,98727.70
2019-01-09T01:29:42.400Z,98738.18
2019-01-09T01:34:42.703Z,98727.76
2019-01-09T01:37:12.629Z,98727.76
2019-01-09T01:39:41.629Z,98735.25
2019-01-09T01:41:46.131Z,98724.88
2019-01-09T01:43:53.579Z,98730.25
2019-01-09T01:46:00.796Z,98730.85
2019-01-09T01:48:08.368Z,98723.80
2019-01-09T01:50:18.941Z,98727.42
2019-01-09T01:52:29.488Z,98726.45
2019-01-09T01:54:42.770Z,98731.05
2019-01-09T01:56:47.528Z,98739.29
2019-01-09T02:04:21.429Z,98736.71
2019-01-09T02:06:35.574Z,98749.77
2019-01-09T02:08:43.467Z,98739.80
2019-01-09T02:11:09.042Z,98740.30
2019-01-09T02:13:22.819Z,98745.77
2019-01-09T02:15:51.241Z,98741.33
2019-01-09T02:17:59.038Z,98728.52
2019-01-09T02:20:03.637Z,98752.10
2019-01-09T02:22:17.398Z,98751.75
2019-01-09T02:24:34.219Z,98765.92
2019-01-09T02:26:39.079Z,98769.17
2019-01-09T02:28:46.921Z,98756.67
2019-01-09T02:30:57.526Z,98754.28
2019-01-09T02:32:58.450Z,98759.00
2019-01-09T02:34:59.363Z,98754.19
2019-01-09T02:37:00.249Z,98752.55
2019-01-09T02:39:02.485Z,98749.72
2019-01-09T02:41:03.703Z,98751.48
2019-01-09T02:43:04.638Z,98745.50
2019-01-09T02:45:05.891Z,98756.52
2019-01-09T02:47:07.058Z,98759.79
2019-01-09T02:49:07.877Z,98760.70
2019-01-09T02:51:08.702Z,98759.03
2019-01-09T02:53:09.657Z,98764.08
2019-01-09T02:55:12.453Z,98749.44
2019-01-09T02:57:13.157Z,98759.51
2019-01-09T02:59:13.797Z,98749.88
2019-01-09T03:01:14.845Z,98756.80
2019-01-09T03:03:15.901Z,98752.14
2019-01-09T03:05:16.830Z,98757.75
2019-01-09T03:07:17.568Z,98761.27
2019-01-09T03:09:20.501Z,98762.91
2019-01-09T03:11:21.243Z,98758.72
2019-01-09T03:13:21.995Z,98761.91
2019-01-09T03:15:23.473Z,98755.28
2019-01-09T03:17:24.429Z,98758.86
2019-01-09T03:19:25.211Z,98739.55
2019-01-09T03:21:25.921Z,98755.53
2019-01-09T03:23:26.886Z,98753.30
2019-01-09T03:25:28.081Z,98740.77
2019-01-09T03:27:29.121Z,98750.14
2019-01-09T03:29:33.370Z,98758.70
2019-01-09T03:31:41.445Z,98746.00
2019-01-09T03:33:42.217Z,98748.33
2019-01-09T03:35:43.440Z,98746.82
2019-01-09T03:37:44.897Z,98749.17
2019-01-09T03:39:45.947Z,98756.30
2019-01-09T03:42:00.029Z,98753.94
2019-01-09T03:44:01.213Z,98760.62
2019-01-09T03:48:30.982Z,98771.97
2019-01-09T03:50:37.933Z,98768.23
2019-01-09T03:52:38.606Z,98777.97
2019-01-09T03:54:39.576Z,98748.45
2019-01-09T03:56:40.372Z,98749.72
2019-01-09T03:58:41.070Z,98740.94
2019-01-09T04:00:41.844Z,98748.92
2019-01-09T04:02:59.604Z,98752.89
2019-01-09T04:05:21.678Z,98763.18
2019-01-09T04:07:11.261Z,98768.91
2019-01-09T04:12:30.402Z,98777.77
2019-01-09T04:14:31.196Z,98779.95
2019-01-09T04:16:32.164Z,98779.67
2019-01-09T04:18:33.081Z,98772.54
2019-01-09T04:20:33.956Z,98765.50
2019-01-09T04:22:34.671Z,98766.64
2019-01-09T04:24:36.495Z,98767.38
2019-01-09T04:26:37.576Z,98770.06
2019-01-09T04:28:56.474Z,98766.80
2019-01-09T04:30:57.368Z,98776.38
2019-01-09T04:32:58.307Z,98762.45
2019-01-09T04:35:01.150Z,98758.25
2019-01-09T04:37:01.999Z,98759.88
2019-01-09T04:39:04.162Z,98765.38
2019-01-09T04:41:05.310Z,98760.38
2019-01-09T04:43:06.518Z,98761.69
2019-01-09T04:45:16.659Z,98767.00
2019-01-09T04:47:17.854Z,98771.47
2019-01-09T04:49:18.962Z,98767.48
2019-01-09T04:51:19.937Z,98772.05
2019-01-09T04:53:20.771Z,98771.59
2019-01-09T04:55:22.611Z,98774.75
2019-01-09T04:57:23.399Z,98778.62
2019-01-09T04:59:24.220Z,98772.06
2019-01-09T05:01:25.273Z,98771.70
2019-01-09T05:03:26.223Z,98772.06
2019-01-09T05:05:27.312Z,98771.35
2019-01-09T05:07:28.957Z,98757.30
2019-01-09T05:09:29.834Z,98763.86
2019-01-09T05:11:33.036Z,98757.77
2019-01-09T05:13:33.745Z,98757.77
2019-01-09T05:15:35.124Z,98749.92
2019-01-09T05:23:20.654Z,98763.27
2019-01-09T05:25:21.237Z,98769.23
2019-01-09T05:27:21.977Z,98771.80
2019-01-09T05:29:23.951Z,98774.38
2019-01-09T05:31:25.935Z,98788.69
2019-01-09T05:33:27.855Z,98786.45
2019-01-09T05:35:28.822Z,98777.45
2019-01-09T05:37:30.572Z,98786.92
2019-01-09T05:39:39.404Z,98789.73
2019-01-09T05:41:34.264Z,98800.75
2019-01-09T05:43:35.630Z,98797.36
2019-01-09T05:45:36.544Z,98791.38
2019-01-09T05:56:00.048Z,98782.72
2019-01-09T05:58:05.482Z,98776.28
2019-01-09T06:00:06.513Z,98780.38
2019-01-09T06:02:08.503Z,98775.22
2019-01-09T06:04:09.517Z,98774.05
2019-01-09T06:06:10.464Z,98784.59
2019-01-09T06:13:40.261Z,98782.25
2019-01-09T06:15:47.283Z,98779.67
2019-01-09T06:17:44.914Z,98786.81
2019-01-09T06:19:47.489Z,98788.11
2019-01-09T06:21:50.213Z,98783.05
2019-01-09T06:23:52.224Z,98792.20
2019-01-09T06:25:53.208Z,98795.13
2019-01-09T06:27:54.206Z,98785.05
2019-01-09T06:29:55.324Z,98792.66
2019-01-09T06:31:56.308Z,98795.36
2019-01-09T06:33:58.159Z,98814.45
2019-01-09T06:35:59.210Z,98809.77
2019-01-09T06:38:00.131Z,98807.65
2019-01-09T06:40:04.865Z,98799.09
2019-01-09T06:42:10.376Z,98804.37
2019-01-09T06:46:51.259Z,98805.78
2019-01-09T06:48:52.373Z,98810.00
2019-01-09T06:50:55.646Z,98816.22
2019-01-09T06:52:57.390Z,98802.39
2019-01-09T07:08:10.398Z,98803.92
2019-01-09T07:10:11.493Z,98808.02
2019-01-09T07:12:12.926Z,98806.61
2019-01-09T07:14:13.793Z,98810.59
2019-01-09T07:16:14.916Z,98807.66
2019-01-09T07:18:15.895Z,98812.47
2019-01-09T07:20:19.428Z,98806.14
2019-01-09T07:22:24.695Z,98805.91
2019-01-09T07:30:33.632Z,98818.20
2019-01-09T07:32:39.194Z,98821.48
2019-01-09T07:34:39.863Z,98830.39
2019-01-09T07:36:40.594Z,98820.44
2019-01-09T07:38:41.599Z,98819.49
2019-01-09T07:40:42.837Z,98830.97
2019-01-09T07:42:45.858Z,98823.70
2019-01-09T07:44:50.038Z,98821.13
2019-01-09T07:46:51.199Z,98819.73
2019-01-09T07:49:03.765Z,98823.23
2019-01-09T07:51:04.734Z,98821.48
2019-01-09T07:53:06.723Z,98826.28
2019-01-09T07:55:07.527Z,98816.56
2019-01-09T07:57:08.226Z,98809.65
2019-01-09T07:59:09.015Z,98809.65
2019-01-09T08:01:09.951Z,98806.14
2019-01-09T08:03:16.874Z,98815.84
2019-01-09T08:05:18.615Z,98814.55
2019-01-09T08:07:19.218Z,98822.64
2019-01-09T08:09:20.221Z,98833.30
2019-01-09T08:11:20.958Z,98828.73
2019-01-09T08:13:21.879Z,98827.22
2019-01-09T08:15:23.569Z,98826.64
2019-01-09T08:17:24.501Z,98839.52
2019-01-09T08:19:26.382Z,98838.59
2019-01-09T08:21:27.394Z,98843.28
2019-01-09T08:23:28.178Z,98841.40
2019-01-09T08:25:29.086Z,98846.20
2019-01-09T08:27:30.056Z,98841.29
2019-01-09T08:29:30.761Z,98848.55
2019-01-09T08:31:40.480Z,98849.02
2019-01-09T08:33:43.597Z,98844.80
2019-01-09T08:35:50.005Z,98841.98
2019-01-09T08:37:50.256Z,98838.82
2019-01-09T08:39:52.693Z,98843.05
2019-01-09T08:41:53.445Z,98849.48
2019-01-09T08:43:57.993Z,98844.92
2019-01-09T08:45:58.702Z,98856.17
2019-01-09T08:47:59.580Z,98852.19
2019-01-09T08:50:06.589Z,98850.78
2019-01-09T08:52:07.477Z,98866.36
2019-01-09T08:54:14.592Z,98861.44
2019-01-09T08:56:16.614Z,98867.30
2019-01-09T08:58:17.878Z,98864.72
2019-01-09T09:00:23.138Z,98866.70
2019-01-09T09:02:25.571Z,98865.19
2019-01-09T09:04:31.247Z,98867.41
2019-01-09T09:06:32.133Z,98866.01
2019-01-09T09:08:42.033Z,98873.63
2019-01-09T09:13:43.265Z,98877.50
2019-01-09T09:15:44.581Z,98879.73
2019-01-09T09:17:45.507Z,98885.94
2019-01-09T09:19:46.581Z,98880.91
2019-01-09T09:22:30.126Z,98880.66
2019-01-09T09:24:29.683Z,98879.02
2019-01-09T09:26:30.881Z,98884.06
2019-01-09T09:28:31.896Z,98888.76
2019-01-09T09:30:33.793Z,98883.60
2019-01-09T09:32:34.808Z,98885.83
2019-01-09T09:34:43.947Z,98895.09
2019-01-09T09:36:45.069Z,98891.22
2019-01-09T09:38:46.183Z,98888.05
2019-01-09T09:40:48.341Z,98873.87
2019-01-09T09:42:49.455Z,98897.44
2019-01-09T09:44:50.414Z,98898.84
2019-01-09T09:46:51.536Z,98897.31
2019-01-09T09:48:52.702Z,98894.73
2019-01-09T09:50:53.690Z,98902.00
2019-01-09T09:52:54.929Z,98894.03
2019-01-09T09:55:18.660Z,98890.87
2019-01-09T09:56:59.885Z,98887.81
2019-01-09T09:59:04.651Z,98897.78
2019-01-09T10:01:06.455Z,98908.56
2019-01-09T10:03:07.368Z,98897.66
2019-01-09T10:05:08.648Z,98899.19
2019-01-09T10:07:09.588Z,98899.19
2019-01-09T10:09:12.634Z,98897.31
2019-01-09T10:11:13.510Z,98898.36
2019-01-09T10:13:14.323Z,98898.25
2019-01-09T10:15:15.797Z,98900.83
2019-01-09T10:17:29.527Z,98899.89
2019-01-09T10:19:22.325Z,98910.20
2019-01-09T10:21:28.000Z,98899.06
2019-01-09T10:23:26.404Z,98906.10
2019-01-09T10:25:34.807Z,98910.44
2019-01-09T10:27:35.912Z,98914.78
2019-01-09T10:29:38.069Z,98921.58
2019-01-09T10:31:39.810Z,98916.66
2019-01-09T10:33:40.690Z,98914.09
2019-01-09T10:38:40.039Z,98903.90
2019-01-09T10:40:42.385Z,98907.87
2019-01-09T10:42:43.430Z,98920.17
2019-01-09T10:44:44.637Z,98915.39
2019-01-09T10:46:45.520Z,98921.94
2019-01-09T10:49:15.537Z,98914.66
2019-01-09T10:51:01.475Z,98923.11
2019-01-09T10:53:05.476Z,98924.63
2019-01-09T10:55:08.588Z,98928.73
2019-01-09T10:57:09.535Z,98933.08
2019-01-09T10:59:11.405Z,98924.52
2019-01-09T11:01:18.426Z,98921.23
2019-01-09T11:03:20.336Z,98917.03
2019-01-09T11:05:21.346Z,98919.35
2019-01-09T11:07:22.241Z,98919.84
2019-01-09T11:09:34.137Z,98929.43
2019-01-09T11:11:32.705Z,98925.11
2019-01-09T11:13:33.547Z,98919.34
2019-01-09T11:15:35.951Z,98933.65
2019-01-09T11:17:42.659Z,98927.99
2019-01-09T11:19:40.686Z,98934.92
2019-01-09T11:21:41.723Z,98907.08
2019-01-09T11:23:49.552Z,98932.08
2019-01-09T11:25:50.530Z,98947.09
2019-01-09T11:27:51.401Z,98944.86
2019-01-09T11:29:52.540Z,98947.63
2019-01-09T11:32:06.877Z,98950.69
2019-01-09T11:34:05.287Z,98956.88
2019-01-09T11:36:06.284Z,98948.72
2019-01-09T11:38:07.466Z,98952.34
2019-01-09T11:40:11.711Z,98958.11
2019-01-09T11:42:14.203Z,98958.73
2019-01-09T11:44:16.294Z,98955.99
2019-01-09T11:46:17.304Z,98946.38
2019-01-09T11:48:18.366Z,98958.11
2019-01-09T11:50:19.543Z,98963.94
2019-01-09T11:52:26.293Z,98956.47
2019-01-09T11:54:34.780Z,98960.62
2019-01-09T11:56:35.528Z,98961.89
2019-01-09T11:58:36.646Z,98960.02
2019-01-09T12:00:38.218Z,98964.67
2019-01-09T12:02:45.052Z,98956.33
2019-01-09T12:04:45.983Z,98948.78
2019-01-09T12:06:47.277Z,98972.75
2019-01-09T12:11:08.646Z,98948.36
2019-01-09T12:13:09.787Z,98944.84
2019-01-09T12:15:12.106Z,98942.22
2019-01-09T12:17:15.080Z,98934.84
2019-01-09T12:19:16.000Z,98945.02
2019-01-09T12:21:17.086Z,98946.86
2019-01-09T12:23:26.897Z,98950.56
2019-01-09T12:25:27.702Z,98943.62
2019-01-09T12:27:28.482Z,98944.52
2019-01-09T12:29:29.212Z,98943.92
2019-01-09T12:31:30.166Z,98930.84
2019-01-09T12:33:31.344Z,98932.59
2019-01-09T12:35:32.206Z,98940.48
2019-01-09T12:37:34.355Z,98944.27
2019-01-09T12:39:35.485Z,98943.47
2019-01-09T12:41:36.526Z,98935.10
2019-01-09T12:43:37.754Z,98943.32
2019-01-09T12:45:40.738Z,98935.24
2019-01-09T12:47:42.597Z,98948.53
2019-01-09T12:49:45.875Z,98959.59
2019-01-09T12:51:46.761Z,98948.45
2019-01-09T12:53:47.790Z,98951.14
2019-01-09T12:55:49.020Z,98950.09
2019-01-09T12:57:49.952Z,98945.41
2019-01-09T12:59:51.203Z,98940.60
2019-01-09T13:01:52.214Z,98936.72
2019-01-09T13:03:53.481Z,98945.16
2019-01-09T13:05:54.640Z,98942.58
2019-01-09T13:07:59.783Z,98944.69
2019-01-09T13:10:00.482Z,98941.77
2019-01-09T13:12:07.102Z,98938.46
2019-01-09T13:14:11.388Z,98945.48
2019-01-09T13:16:12.325Z,98952.52
2019-01-09T13:18:13.491Z,98953.22
2019-01-09T13:20:16.696Z,98946.16
2019-01-09T13:22:20.950Z,98945.38
2019-01-09T13:24:22.278Z,98954.02
2019-01-09T13:26:39.373Z,98951.67
2019-01-09T13:28:44.806Z,98945.23
2019-01-09T13:30:47.819Z,98946.16
2019-01-09T13:32:59.094Z,98950.84
2019-01-09T13:35:00.132Z,98947.42
2019-01-09T13:39:30.922Z,98962.78
2019-01-09T13:41:29.985Z,98944.54
2019-01-09T13:45:54.480Z,98969.70
2019-01-09T13:47:56.570Z,98964.44
2019-01-09T13:49:57.608Z,98966.45
2019-01-09T13:52:00.961Z,98972.78
2019-01-09T13:54:04.191Z,98967.95
2019-01-09T13:56:06.802Z,98956.01
2019-01-09T13:58:07.913Z,98972.77
2019-01-09T14:00:15.752Z,98971.96
2019-01-09T14:02:16.712Z,98983.45
2019-01-09T14:04:18.137Z,98979.37
2019-01-09T14:06:19.187Z,98976.08
2019-01-09T14:08:19.961Z,98988.88
2019-01-09T14:10:22.882Z,98995.56
2019-01-09T14:12:23.954Z,98990.86
2019-01-09T14:14:24.707Z,98988.53
2019-01-09T14:16:25.578Z,98989.94
2019-01-09T14:18:26.445Z,98987.13
2019-01-09T14:20:27.346Z,98988.66
2019-01-09T14:22:32.870Z,98989.58
2019-01-09T14:24:30.869Z,98990.41
2019-01-09T14:26:31.827Z,98990.66
2019-01-09T14:28:32.700Z,98999.33
2019-01-09T14:30:33.374Z,98999.33
2019-01-09T14:32:34.210Z,98999.47
2019-01-09T14:34:35.265Z,99010.13
2019-01-09T14:36:36.176Z,99007.79
2019-01-09T14:38:36.899Z,98994.77
2019-01-09T14:40:37.973Z,98999.91
2019-01-09T14:42:39.395Z,99003.45
2019-01-09T14:44:40.133Z,99018.59
2019-01-09T14:46:40.963Z,99009.91
2019-01-09T14:48:44.794Z,99014.38
2019-01-09T14:50:47.626Z,99016.37
2019-01-09T14:52:49.672Z,99020.13
2019-01-09T14:54:50.680Z,99020.01
2019-01-09T14:56:51.658Z,99021.65
2019-01-09T14:58:52.776Z,99026.00
2019-01-09T15:00:53.767Z,99029.28
2019-01-09T15:02:54.774Z,99025.64
2019-01-09T15:04:55.452Z,99026.82
2019-01-09T15:06:56.506Z,99025.64
2019-01-09T15:08:57.660Z,99026.82
2019-01-09T15:10:58.424Z,99027.05
2019-01-09T15:13:00.549Z,99039.26
2019-01-09T15:15:01.348Z,99032.45
2019-01-09T15:17:02.058Z,99033.04
2019-01-09T15:19:03.497Z,99051.22
2019-01-09T15:21:04.270Z,99043.13
2019-01-09T15:23:05.047Z,99039.61
2019-01-09T15:25:08.181Z,99037.97
2019-01-09T15:27:09.111Z,99044.07
2019-01-09T15:29:09.881Z,99040.43
2019-01-09T15:31:11.089Z,99046.41
2019-01-09T15:33:12.140Z,99047.11
2019-01-09T15:35:13.348Z,99045.59
2019-01-09T15:37:14.088Z,99044.18
2019-01-09T15:39:15.322Z,99045.00
2019-01-09T15:41:18.475Z,99039.72
2019-01-09T15:43:19.753Z,99047.94
2019-01-09T15:45:23.024Z,99049.22
2019-01-09T15:47:23.962Z,99061.08
2019-01-09T15:49:25.056Z,99054.38
2019-01-09T15:51:26.550Z,99060.23
2019-01-09T15:53:27.688Z,99071.37
2019-01-09T15:55:28.676Z,99074.67
2019-01-09T15:57:29.870Z,99071.37
2019-01-09T15:59:31.129Z,99078.64
2019-01-09T16:01:32.092Z,99078.17
2019-01-09T16:03:35.140Z,99096.18
2019-01-09T16:05:39.217Z,99087.02
2019-01-09T16:07:40.226Z,99087.48
2019-01-09T16:09:53.622Z,99095.22
2019-01-09T16:11:46.100Z,99109.05
2019-01-09T16:13:47.001Z,99107.27
2019-01-09T16:15:47.930Z,99098.58
2019-01-09T16:17:49.972Z,99111.83
2019-01-09T16:19:52.930Z,99109.58
2019-01-09T16:21:59.210Z,99114.98
2019-01-09T16:24:01.363Z,99106.11
2019-01-09T16:26:03.039Z,99114.05
2019-01-09T16:28:06.445Z,99113.34
2019-01-09T16:30:33.828Z,99124.13
2019-01-09T16:32:36.042Z,99119.32
2019-01-09T16:34:36.883Z,99120.41
2019-01-09T16:36:37.797Z,99120.27
2019-01-09T16:38:40.554Z,99115.59
2019-01-09T16:40:41.157Z,99111.84
2019-01-09T16:42:44.196Z,99113.16
2019-01-09T16:44:44.985Z,99116.54
2019-01-09T16:46:46.062Z,99118.56
2019-01-09T16:48:56.609Z,99130.42
2019-01-09T16:53:52.822Z,99126.02
2019-01-09T16:55:54.988Z,99121.36
2019-01-09T16:57:55.742Z,99126.65
2019-01-09T16:59:56.663Z,99126.61
2019-01-09T17:01:59.548Z,99141.28
2019-01-09T17:04:02.896Z,99135.44
2019-01-09T17:06:04.366Z,99138.58
2019-01-09T17:08:05.837Z,99134.66
2019-01-09T17:10:14.834Z,99138.61
2019-01-09T17:12:16.885Z,99137.16
2019-01-09T17:14:17.802Z,99145.42
2019-01-09T17:16:19.921Z,99145.20
2019-01-09T17:18:22.893Z,99152.41
2019-01-09T17:20:30.063Z,99149.55
2019-01-09T17:22:31.344Z,99154.27
2019-01-09T17:24:33.578Z,99146.98
2019-01-09T17:26:35.503Z,99149.94
2019-01-09T17:28:36.222Z,99158.19
2019-01-09T17:30:37.971Z,99153.83
2019-01-09T17:32:38.804Z,99165.52
2019-01-09T17:34:40.626Z,99162.34
2019-01-09T17:36:43.248Z,99167.98
2019-01-09T17:38:45.315Z,99174.33
2019-01-09T17:40:47.306Z,99174.33
2019-01-09T17:42:50.924Z,99171.88
2019-01-09T17:44:53.845Z,99168.59
2019-01-09T17:46:56.148Z,99180.99
2019-01-09T17:48:57.258Z,99181.12
2019-01-09T17:50:58.225Z,99183.84
2019-01-09T17:53:01.779Z,99179.23
2019-01-09T17:55:06.190Z,99188.62
2019-01-09T17:57:06.842Z,99190.02
2019-01-09T17:59:07.508Z,99192.78
2019-01-09T18:01:08.312Z,99198.50
2019-01-09T18:03:09.143Z,99204.56
2019-01-09T18:05:10.358Z,99204.20
2019-01-09T18:07:11.704Z,99210.02
2019-01-09T18:09:13.654Z,99205.95
2019-01-09T18:11:14.677Z,99210.33
2019-01-09T18:13:16.018Z,99213.56
2019-01-09T18:15:21.283Z,99208.76
2019-01-09T18:17:22.118Z,99212.66
2019-01-09T18:19:23.367Z,99219.08
2019-01-09T18:21:25.872Z,99229.67
2019-01-09T18:23:27.020Z,99233.61
2019-01-09T18:25:28.796Z,99233.01
2019-01-09T18:27:29.759Z,99232.30
2019-01-09T18:29:31.999Z,99236.88
2019-01-09T18:31:39.725Z,99235.41
2019-01-09T18:33:44.464Z,99232.72
2019-01-09T18:35:49.258Z,99233.80
2019-01-09T18:37:58.659Z,99244.33
2019-01-09T18:40:06.129Z,99233.55
2019-01-09T18:42:36.605Z,99243.75
2019-01-09T18:44:49.873Z,99245.33
2019-01-09T18:47:07.441Z,99250.95
2019-01-09T18:49:25.094Z,99257.36
2019-01-09T18:51:30.381Z,99244.61
2019-01-09T18:56:03.971Z,99251.84
2019-01-09T18:58:10.147Z,99251.56
2019-01-09T19:00:19.246Z,99255.11
2019-01-09T19:02:22.175Z,99257.29
2019-01-09T19:04:23.309Z,99261.37
2019-01-09T19:06:24.268Z,99262.37
2019-01-09T19:08:26.165Z,99264.45
2019-01-09T19:10:44.037Z,99272.66
2019-01-09T19:12:42.765Z,99269.61
2019-01-09T19:14:43.903Z,99271.22
2019-01-09T19:19:58.205Z,99279.56
2019-01-09T19:24:41.837Z,99265.73
2019-01-09T19:26:42.960Z,99275.44
2019-01-09T19:28:43.818Z,99275.72
2019-01-09T19:30:44.866Z,99284.31
2019-01-09T19:32:45.971Z,99286.64
2019-01-09T19:40:59.686Z,99289.88
2019-01-09T19:43:01.124Z,99295.92
2019-01-09T19:45:25.246Z,99301.33
2019-01-09T19:47:26.243Z,99286.89
2019-01-09T19:49:27.184Z,99298.39
2019-01-09T19:51:28.174Z,99300.46
2019-01-09T19:53:29.357Z,99295.45
2019-01-09T19:55:30.014Z,99304.84
2019-01-09T19:57:30.967Z,99298.39
2019-01-09T19:59:31.778Z,99291.95
2019-01-09T20:01:33.059Z,99300.61
2019-01-09T20:03:34.128Z,99303.30
2019-01-09T20:05:36.359Z,99299.13
2019-01-09T20:07:43.279Z,99310.37
2019-01-09T20:09:44.575Z,99315.92
2019-01-09T20:11:52.349Z,99316.51
2019-01-09T20:13:53.577Z,99331.35
2019-01-09T20:18:38.634Z,99322.33
2019-01-09T20:20:40.423Z,99326.71
2019-01-09T20:22:51.404Z,99329.03
2019-01-09T20:25:00.667Z,99332.08
2019-01-09T20:26:58.564Z,99335.58
2019-01-09T20:28:59.578Z,99332.38
2019-01-09T20:31:01.111Z,99336.20
2019-01-09T20:33:02.283Z,99332.59
2019-01-09T20:35:05.055Z,99340.47
2019-01-09T20:37:07.244Z,99334.13
2019-01-09T20:39:08.262Z,99334.13
2019-01-09T20:41:15.583Z,99335.78
2019-01-09T20:43:12.759Z,99351.04
2019-01-09T20:45:18.067Z,99350.31
2019-01-09T20:47:22.891Z,99348.98
2019-01-09T20:49:24.030Z,99355.83
2019-01-09T20:51:24.944Z,99358.62
2019-01-09T20:53:26.117Z,99358.25
2019-01-09T20:55:31.482Z,99356.66
2019-01-09T20:57:31.949Z,99359.86
2019-01-09T20:59:33.041Z,99366.04
2019-01-09T21:04:42.918Z,99365.68
2019-01-09T21:06:44.846Z,99375.31
2019-01-09T21:08:46.095Z,99373.45
2019-01-09T21:10:47.202Z,99375.98
2019-01-09T21:12:48.412Z,99368.92
2019-01-09T21:14:54.843Z,99373.05
2019-01-09T21:16:55.783Z,99376.55
2019-01-09T21:18:57.609Z,99373.84
2019-01-09T21:23:57.587Z,99384.84
2019-01-09T21:26:04.026Z,99391.39
2019-01-09T21:28:05.493Z,99385.98
2019-01-09T21:30:09.661Z,99397.88
2019-01-09T21:32:10.737Z,99392.98
2019-01-09T21:34:11.711Z,99397.41
2019-01-09T21:36:12.850Z,99394.41
2019-01-09T21:38:13.759Z,99395.14
2019-01-09T21:40:20.482Z,99395.44
2019-01-09T21:42:21.458Z,99401.48
2019-01-09T21:44:22.345Z,99402.36
2019-01-09T21:46:23.122Z,99401.69
2019-01-09T21:48:23.996Z,99404.58
2019-01-09T21:50:25.161Z,99404.16
2019-01-09T21:52:27.928Z,99406.37
2019-01-09T21:54:35.017Z,99408.55
2019-01-09T21:56:33.522Z,99414.89
2019-01-09T21:58:34.228Z,99414.97
2019-01-09T22:00:34.971Z,99410.17
2019-01-09T22:02:35.699Z,99415.55
2019-01-09T22:04:41.439Z,99414.20
2019-01-09T22:06:43.424Z,99417.70
2019-01-09T22:11:46.939Z,99433.25
2019-01-09T22:13:48.780Z,99434.15
2019-01-09T22:15:50.031Z,99436.02
2019-01-09T22:17:51.176Z,99430.88
2019-01-09T22:19:52.009Z,99431.41
2019-01-09T22:21:53.295Z,99434.11
2019-01-09T22:23:56.816Z,99428.01
2019-01-09T22:26:00.297Z,99436.16
2019-01-09T22:28:06.297Z,99427.91
2019-01-09T22:30:17.153Z,99429.88
2019-01-09T22:32:18.628Z,99427.34
2019-01-09T22:34:20.059Z,99427.34
2019-01-09T22:36:21.133Z,99427.78
2019-01-09T22:38:25.406Z,99421.70
2019-01-09T22:40:26.399Z,99427.55
2019-01-09T22:42:27.260Z,99425.70
2019-01-09T22:44:30.332Z,99428.83
2019-01-09T22:46:31.078Z,99426.66
2019-01-09T22:48:36.303Z,99426.48
2019-01-09T22:50:40.513Z,99427.67
2019-01-09T22:52:46.045Z,99430.58
2019-01-09T22:55:20.015Z,99426.92
2019-01-09T22:57:08.767Z,99429.69
2019-01-09T22:59:18.428Z,99430.95
2019-01-09T23:01:25.681Z,99432.00
2019-01-09T23:03:27.351Z,99437.22
2019-01-09T23:05:28.676Z,99440.16
2019-01-09T23:14:29.736Z,99422.20
2019-01-09T23:14:50.097Z,99427.22
2019-01-09T23:16:51.184Z,99423.52
2019-01-09T23:18:51.944Z,99419.92
2019-01-09T23:20:52.757Z,99422.35
2019-01-09T23:22:53.668Z,99432.81
2019-01-09T23:24:55.266Z,99438.48
2019-01-09T23:27:02.120Z,99441.88
2019-01-09T23:29:08.993Z,99446.53
2019-01-09T23:31:12.883Z,99447.43
2019-01-09T23:33:16.135Z,99453.34
2019-01-09T23:35:22.503Z,99462.26
2019-01-09T23:37:24.221Z,99458.74
2019-01-09T23:39:26.269Z,99460.73
2019-01-09T23:41:33.002Z,99470.31
2019-01-09T23:43:41.983Z,99472.86
2019-01-09T23:45:45.295Z,99475.77
2019-01-09T23:47:46.110Z,99476.55
2019-01-09T23:49:46.873Z,99475.80
2019-01-09T23:51:47.877Z,99476.28
2019-01-09T23:53:55.659Z,99472.34
2019-01-09T23:55:56.559Z,99478.40
2019-01-09T23:57:57.602Z,99481.73
2019-01-09T23:59:59.246Z,99481.00
